Time;durP1;ratioP1;P1;durP2;ratioP2;P2;SDS_P1;SDS_P2;PMS_P1;PMS_P2;Temp;Humidity;BMP_temperature;BMP_pressure;BME280_temperature;BME280_humidity;BME280_pressure;Samples;Min_cycle;Max_cycle;Signal;HPM_P1;HPM_P2
2022/10/02 00:01:25;;;;;;;;;;;;;;;12.96;73.97;100671.47;5001652;28;20328;-53
2022/10/02 00:03:51;;;;;;;;;;;;;;;12.96;74.10;100691.75;4999676;28;19924;-52
2022/10/02 00:06:21;;;;;;;;;;;;;;;12.94;74.14;100689.22;5002420;28;19925;-51
2022/10/02 00:08:48;;;;;;;;;;;;;;;12.96;73.98;100697.03;5001668;28;19956;-51
2022/10/02 00:11:16;;;;;;;;;;;;;;;12.96;73.89;100702.31;5002551;28;19963;-50
2022/10/02 00:13:50;;;;;;;;;;;;;;;12.94;73.98;100701.56;5000089;28;19967;-50
2022/10/02 00:16:36;;;;;;;;;;;;;;;12.94;74.07;100696.28;5002721;28;19965;-53
2022/10/02 00:19:02;;;;;;;;;;;;;;;12.94;74.04;100698.91;5002500;28;20020;-53
2022/10/02 00:21:46;;;;;;;;;;;;;;;12.94;73.99;100697.13;5003592;28;20594;-51
2022/10/02 00:24:14;;;;;;;;;;;;;;;12.92;73.99;100699.03;4998455;28;19917;-53
2022/10/02 00:27:00;;;;;;;;;;;;;;;12.93;73.90;100697.25;5002685;28;19926;-50
2022/10/02 00:29:52;;;;;;;;;;;;;;;12.91;74.01;100693.88;5000879;28;20004;-51
2022/10/02 00:32:30;;;;;;;;;;;;;;;12.91;74.03;100696.50;4997185;28;19918;-50
2022/10/02 00:35:15;;;;;;;;;;;;;;;12.88;73.84;100709.91;4999274;28;19922;-50
2022/10/02 00:37:40;;;;;;;;;;;;;;;12.89;73.92;100715.09;5000950;28;20511;-51
2022/10/02 00:40:24;;;;;;;;;;;;;;;12.90;73.81;100718.59;4999630;28;20020;-50
2022/10/02 00:43:00;;;;;;;;;;;;;;;12.90;73.82;100718.59;5003614;28;20389;-50
2022/10/02 00:45:44;;;;;;;;;;;;;;;12.90;73.71;100715.94;5003661;28;19921;-51
2022/10/02 00:48:29;;;;;;;;;;;;;;;12.89;73.97;100708.97;5001902;28;19921;-50
2022/10/02 00:50:54;;;;;;;;;;;;;;;12.90;73.86;100716.78;5003626;28;19917;-50
2022/10/02 00:53:20;;;;;;;;;;;;;;;12.92;73.97;100719.34;5004502;28;19933;-50
2022/10/02 00:55:45;;;;;;;;;;;;;;;12.94;73.94;100722.69;4995954;28;20012;-51
2022/10/02 00:58:13;;;;;;;;;;;;;;;12.95;73.98;100729.66;4999593;28;20047;-50
2022/10/02 01:00:39;;;;;;;;;;;;;;;12.96;73.69;100734.00;4999190;28;19977;-53
2022/10/02 01:03:05;;;;;;;;;;;;;;;12.95;73.78;100733.16;5000466;28;19925;-51
2022/10/02 01:05:33;;;;;;;;;;;;;;;12.98;73.77;100731.28;4998266;28;19925;-51
2022/10/02 01:07:59;;;;;;;;;;;;;;;12.98;73.74;100733.91;4998100;28;19949;-50
2022/10/02 01:10:25;;;;;;;;;;;;;;;12.95;73.78;100729.66;4999823;28;19922;-50
2022/10/02 01:12:51;;;;;;;;;;;;;;;12.94;73.60;100733.25;4998381;28;19968;-50
2022/10/02 01:15:18;;;;;;;;;;;;;;;12.94;73.93;100738.53;5000045;28;19926;-50
2022/10/02 01:17:48;;;;;;;;;;;;;;;12.94;73.65;100744.69;5002542;28;19921;-51
2022/10/02 01:20:16;;;;;;;;;;;;;;;12.96;73.77;100752.50;4998666;28;20011;-50
2022/10/02 01:22:59;;;;;;;;;;;;;;;12.95;73.61;100751.66;4999011;28;20372;-49
2022/10/02 01:25:25;;;;;;;;;;;;;;;12.94;73.56;100757.88;4993615;28;19964;-52
2022/10/02 01:27:51;;;;;;;;;;;;;;;12.94;73.71;100760.53;4998537;28;19929;-50
2022/10/02 01:30:18;;;;;;;;;;;;;;;12.96;73.64;100763.06;5005105;28;19925;-51
2022/10/02 01:32:48;;;;;;;;;;;;;;;12.96;73.46;100763.06;4999936;28;19932;-52
2022/10/02 01:35:14;;;;;;;;;;;;;;;12.94;73.63;100760.53;4983705;28;19940;-53
2022/10/02 01:37:41;;;;;;;;;;;;;;;12.95;73.54;100758.72;5001859;28;20383;-54
2022/10/02 01:40:09;;;;;;;;;;;;;;;12.93;73.47;100769.41;5002976;28;20028;-52
2022/10/02 01:42:34;;;;;;;;;;;;;;;12.93;73.42;100763.28;5004503;28;20384;-51
2022/10/02 01:45:00;;;;;;;;;;;;;;;12.94;73.47;100773.72;5003338;28;19972;-53
2022/10/02 01:47:33;;;;;;;;;;;;;;;12.95;73.45;100775.44;5005938;28;19929;-54
2022/10/02 01:50:13;;;;;;;;;;;;;;;12.94;73.42;100779.00;5006178;28;20703;-53
2022/10/02 01:52:57;;;;;;;;;;;;;;;12.94;73.45;100771.09;5003018;28;20080;-51
2022/10/02 01:55:47;;;;;;;;;;;;;;;12.93;73.32;100773.84;4997986;28;19922;-52
2022/10/02 01:58:15;;;;;;;;;;;;;;;12.92;73.36;100777.44;5003178;28;20001;-49
2022/10/02 02:01:02;;;;;;;;;;;;;;;12.90;73.32;100800.47;4999881;28;20366;-50
2022/10/02 02:03:30;;;;;;;;;;;;;;;12.91;73.32;100794.22;4996157;28;19944;-52
2022/10/02 02:06:01;;;;;;;;;;;;;;;12.91;73.38;100807.44;4997662;28;19951;-49
2022/10/02 02:08:30;;;;;;;;;;;;;;;12.92;73.28;100804.69;5000314;28;20412;-53
2022/10/02 02:11:13;;;;;;;;;;;;;;;12.92;73.32;100794.13;4997511;28;19922;-49
2022/10/02 02:13:57;;;;;;;;;;;;;;;12.91;73.28;100797.69;4999218;28;19922;-54
2022/10/02 02:16:25;;;;;;;;;;;;;;;12.87;73.14;100798.84;4998731;28;20392;-50
2022/10/02 02:18:50;;;;;;;;;;;;;;;12.86;73.19;100798.97;5002097;28;19925;-51
2022/10/02 02:21:22;;;;;;;;;;;;;;;12.82;73.29;100803.59;4995834;28;20407;-53
2022/10/02 02:23:48;;;;;;;;;;;;;;;12.81;73.04;100810.66;5000897;28;19925;-50
2022/10/02 02:26:17;;;;;;;;;;;;;;;12.79;73.22;100815.19;4995622;28;20388;-52
2022/10/02 02:28:46;;;;;;;;;;;;;;;12.78;73.31;100813.50;5003882;28;20238;-54
2022/10/02 02:31:14;;;;;;;;;;;;;;;12.76;73.21;100815.41;4997525;28;19921;-53
2022/10/02 02:33:45;;;;;;;;;;;;;;;12.74;73.13;100830.50;4995991;28;19929;-51
2022/10/02 02:36:12;;;;;;;;;;;;;;;12.73;73.09;100820.91;4993727;28;19937;-50
2022/10/02 02:38:50;;;;;;;;;;;;;;;12.72;73.17;100819.19;4995444;28;19924;-52
2022/10/02 02:41:19;;;;;;;;;;;;;;;12.72;73.13;100813.91;5003784;28;19973;-50
2022/10/02 02:43:47;;;;;;;;;;;;;;;12.71;73.12;100817.50;4998456;28;19922;-53
2022/10/02 02:46:25;;;;;;;;;;;;;;;12.70;73.14;100820.25;4997636;28;19922;-50
2022/10/02 02:48:56;;;;;;;;;;;;;;;12.66;73.13;100809.03;5001860;28;19972;-51
2022/10/02 02:51:25;;;;;;;;;;;;;;;12.63;73.02;100820.66;4998909;28;20452;-50
2022/10/02 02:54:12;;;;;;;;;;;;;;;12.63;73.02;100819.78;4999825;28;19928;-50
2022/10/02 02:56:37;;;;;;;;;;;;;;;12.59;73.00;100824.44;4995359;28;19983;-50
2022/10/02 02:59:09;;;;;;;;;;;;;;;12.59;73.08;100820.97;4999599;28;20441;-50
2022/10/02 03:01:34;;;;;;;;;;;;;;;12.57;72.90;100828.13;5005584;28;19957;-53
2022/10/02 03:03:59;;;;;;;;;;;;;;;12.56;72.93;100829.91;4997712;28;20020;-51
2022/10/02 03:06:32;;;;;;;;;;;;;;;12.58;72.79;100837.75;4994165;28;19929;-53
2022/10/02 03:08:57;;;;;;;;;;;;;;;12.58;72.77;100843.03;5005528;28;19964;-50
2022/10/02 03:11:23;;;;;;;;;;;;;;;12.57;72.79;100825.47;4997965;28;20100;-52
2022/10/02 03:14:07;;;;;;;;;;;;;;;12.58;72.84;100829.81;4996406;28;19930;-50
2022/10/02 03:16:33;;;;;;;;;;;;;;;12.57;72.84;100833.41;4998632;28;19941;-50
2022/10/02 03:19:07;;;;;;;;;;;;;;;12.60;72.57;100838.50;4995976;28;20008;-54
2022/10/02 03:22:04;;;;;;;;;;;;;;;12.59;72.66;100823.59;4998459;28;19937;-51
2022/10/02 03:24:35;;;;;;;;;;;;;;;12.56;72.47;100819.34;4967228;28;19925;-53
2022/10/02 03:27:13;;;;;;;;;;;;;;;12.55;72.61;100822.97;4999148;28;19925;-49
2022/10/02 03:29:38;;;;;;;;;;;;;;;12.54;72.58;100825.69;4994223;28;19941;-49
2022/10/02 03:32:06;;;;;;;;;;;;;;;12.53;72.67;100829.25;4990295;28;19993;-51
2022/10/02 03:34:32;;;;;;;;;;;;;;;12.55;72.55;100835.28;4989575;28;20091;-50
2022/10/02 03:36:58;;;;;;;;;;;;;;;12.54;72.63;100834.47;4998679;28;19932;-51
2022/10/02 03:39:24;;;;;;;;;;;;;;;12.54;72.63;100836.22;4994020;28;19930;-50
2022/10/02 03:41:49;;;;;;;;;;;;;;;12.54;72.63;100846.78;4992591;28;19930;-51
2022/10/02 03:44:15;;;;;;;;;;;;;;;12.55;72.66;100840.56;4995162;28;19929;-54
2022/10/02 03:46:40;;;;;;;;;;;;;;;12.56;72.78;100847.53;4985945;28;19927;-50
2022/10/02 03:49:05;;;;;;;;;;;;;;;12.56;72.64;100850.19;4995391;28;19924;-51
2022/10/02 03:51:30;;;;;;;;;;;;;;;12.55;72.85;100852.00;4999869;28;19925;-50
2022/10/02 03:53:56;;;;;;;;;;;;;;;12.54;72.72;100858.22;4997460;28;20526;-50
2022/10/02 03:56:43;;;;;;;;;;;;;;;12.54;72.83;100857.34;4996291;28;19921;-52
2022/10/02 03:59:12;;;;;;;;;;;;;;;12.55;72.80;100856.41;4995919;28;19926;-51
2022/10/02 04:01:40;;;;;;;;;;;;;;;12.54;72.63;100846.78;4995842;28;19930;-51
2022/10/02 04:04:09;;;;;;;;;;;;;;;12.55;72.64;100849.34;4990661;28;20502;-51
2022/10/02 04:06:34;;;;;;;;;;;;;;;12.55;72.80;100865.19;4998928;28;19926;-50
2022/10/02 04:09:07;;;;;;;;;;;;;;;12.55;72.65;100857.28;4994241;28;19929;-49
2022/10/02 04:11:38;;;;;;;;;;;;;;;12.58;72.66;100858.84;4993937;28;19975;-51
2022/10/02 04:14:09;;;;;;;;;;;;;;;12.60;72.46;100864.88;4995853;28;20403;-51
2022/10/02 04:16:38;;;;;;;;;;;;;;;12.62;72.39;100861.19;5003385;28;19917;-50
2022/10/02 04:19:20;;;;;;;;;;;;;;;12.62;72.27;100870.91;4996308;28;19925;-49
2022/10/02 04:21:45;;;;;;;;;;;;;;;12.62;72.37;100860.34;4994748;28;20019;-50
2022/10/02 04:24:25;;;;;;;;;;;;;;;12.62;72.30;100860.34;4993341;28;19921;-50
2022/10/02 04:26:56;;;;;;;;;;;;;;;12.62;72.27;100860.34;4995362;28;19918;-50
2022/10/02 04:29:24;;;;;;;;;;;;;;;12.63;72.26;100865.53;4996100;28;19936;-50
2022/10/02 04:31:52;;;;;;;;;;;;;;;12.63;72.13;100862.03;5002254;28;20020;-51
2022/10/02 04:34:18;;;;;;;;;;;;;;;12.64;72.25;100871.63;4997996;28;20016;-51
2022/10/02 04:36:55;;;;;;;;;;;;;;;12.63;72.22;100862.03;5004103;28;20016;-51
2022/10/02 04:39:44;;;;;;;;;;;;;;;12.64;72.19;100853.16;4998909;28;19926;-51
2022/10/02 04:42:15;;;;;;;;;;;;;;;12.66;72.23;100861.84;4984094;28;19929;-52
2022/10/02 04:44:56;;;;;;;;;;;;;;;12.67;72.39;100855.59;4995552;28;19925;-51
2022/10/02 04:47:44;;;;;;;;;;;;;;;12.67;72.28;100863.53;5001571;28;19957;-51
2022/10/02 04:50:10;;;;;;;;;;;;;;;12.68;72.37;100867.03;5000797;28;19925;-51
2022/10/02 04:52:44;;;;;;;;;;;;;;;12.68;72.18;100861.75;4997061;28;19980;-50
2022/10/02 04:55:19;;;;;;;;;;;;;;;12.68;72.23;100862.59;4999937;28;19972;-57
2022/10/02 04:57:47;;;;;;;;;;;;;;;12.69;72.33;100861.63;4998544;28;19917;-51
2022/10/02 05:00:14;;;;;;;;;;;;;;;12.68;72.13;100862.59;5003226;28;21044;-51
2022/10/02 05:03:15;;;;;;;;;;;;;;;12.69;72.34;100864.28;5006738;28;19925;-52
2022/10/02 05:05:43;;;;;;;;;;;;;;;12.70;72.11;100863.34;4920875;29;19927;-50
2022/10/02 05:08:27;;;;;;;;;;;;;;;12.70;72.02;100873.06;4981400;28;20815;-52
2022/10/02 05:11:03;;;;;;;;;;;;;;;12.67;72.04;100867.97;4998288;28;19921;-50
2022/10/02 05:13:32;;;;;;;;;;;;;;;12.65;72.23;100857.50;5001202;28;19957;-51
2022/10/02 05:15:57;;;;;;;;;;;;;;;12.67;72.12;100857.41;4996786;28;19929;-50
2022/10/02 05:18:41;;;;;;;;;;;;;;;12.69;72.18;100868.72;4997041;28;19918;-50
2022/10/02 05:21:28;;;;;;;;;;;;;;;12.67;72.11;100863.53;4997133;28;19930;-50
2022/10/02 05:24:10;;;;;;;;;;;;;;;12.65;72.13;100855.72;5003253;28;19926;-50
2022/10/02 05:26:36;;;;;;;;;;;;;;;12.67;72.17;100867.97;4999110;28;20408;-50
2022/10/02 05:29:01;;;;;;;;;;;;;;;12.65;72.15;100868.06;4997337;28;19926;-50
2022/10/02 06:23:29;;;;;;;;;;;;;;;12.10;73.57;100915.47;5067404;27;19962;-51
2022/10/02 06:25:56;;;;;;;;;;;;;;;12.18;73.61;100920.25;5070067;28;19928;-55
2022/10/02 06:28:22;;;;;;;;;;;;;;;12.27;73.42;100919.69;5071288;28;19925;-52
2022/10/02 06:31:00;;;;;;;;;;;;;;;12.33;73.32;100924.59;5062980;28;19923;-54
2022/10/02 06:33:28;;;;;;;;;;;;;;;12.39;73.30;100918.06;5070111;28;19969;-53
2022/10/02 06:35:56;;;;;;;;;;;;;;;12.44;73.23;100916.00;5068296;28;19952;-53
2022/10/02 06:38:24;;;;;;;;;;;;;;;12.49;73.01;100915.72;5072103;28;20401;-52
2022/10/02 06:40:55;;;;;;;;;;;;;;;12.49;72.97;100924.47;5065471;28;19923;-53
2022/10/02 06:43:50;;;;;;;;;;;;;;;12.53;72.94;100921.63;5066647;28;19920;-52
2022/10/02 06:46:21;;;;;;;;;;;;;;;12.55;72.82;100927.66;5065765;28;19924;-53
2022/10/02 06:48:51;;;;;;;;;;;;;;;12.59;72.82;100934.47;5071476;28;20289;-54
2022/10/02 06:51:25;;;;;;;;;;;;;;;12.60;72.64;100925.59;5073282;28;20258;-53
2022/10/02 06:53:58;;;;;;;;;;;;;;;12.60;72.62;100921.16;5063928;28;19924;-52
2022/10/02 06:56:42;;;;;;;;;;;;;;;12.62;72.64;100936.91;5067979;28;19916;-53
2022/10/02 06:59:08;;;;;;;;;;;;;;;12.63;72.51;100925.38;5063100;28;19924;-53
2022/10/02 07:01:39;;;;;;;;;;;;;;;12.66;72.34;100925.19;5065012;28;20149;-51
2022/10/02 07:04:24;;;;;;;;;;;;;;;12.70;72.39;100920.59;5063317;28;19917;-52
2022/10/02 07:06:52;;;;;;;;;;;;;;;12.75;72.52;100929.91;5088050;28;19989;-51
2022/10/02 07:09:32;;;;;;;;;;;;;;;12.78;72.28;100929.69;5063397;28;20020;-51
2022/10/02 07:12:07;;;;;;;;;;;;;;;12.80;71.99;100942.81;5069463;28;20137;-52
2022/10/02 07:14:49;;;;;;;;;;;;;;;12.81;72.10;100940.06;5065027;28;19920;-52
2022/10/02 07:17:40;;;;;;;;;;;;;;;12.82;71.79;100940.91;5072158;28;19920;-52
2022/10/02 07:20:09;;;;;;;;;;;;;;;12.82;71.73;100935.63;5068927;28;19920;-54
2022/10/02 07:23:00;;;;;;;;;;;;;;;12.85;71.93;100951.28;5069098;23;19963;-53
2022/10/02 07:25:44;;;;;;;;;;;;;;;12.88;71.73;100947.59;5060526;23;19925;-53
2022/10/02 07:28:09;;;;;;;;;;;;;;;12.92;71.73;100951.75;5055073;28;19929;-52
2022/10/02 07:30:52;;;;;;;;;;;;;;;12.96;71.88;100950.56;5063430;28;19977;-53
2022/10/02 07:33:36;;;;;;;;;;;;;;;12.98;71.57;100946.03;5033351;28;21041;-53
2022/10/02 07:36:05;;;;;;;;;;;;;;;13.00;71.65;100943.31;5046518;28;19929;-51
2022/10/02 07:38:42;;;;;;;;;;;;;;;13.03;71.77;100948.38;5051944;28;19920;-54
2022/10/02 07:41:19;;;;;;;;;;;;;;;13.05;71.75;100943.84;5050638;28;20345;-53
2022/10/02 07:43:57;;;;;;;;;;;;;;;13.08;71.81;100939.22;5033324;28;20813;-52
2022/10/02 07:46:23;;;;;;;;;;;;;;;13.16;71.78;100937.88;5053987;28;20015;-52
2022/10/02 07:48:48;;;;;;;;;;;;;;;13.22;71.63;100937.47;5049491;28;19924;-53
2022/10/02 07:54:06;;;;;;;;;;;;;;;13.27;71.30;100933.59;5047497;28;19966;-59
2022/10/02 07:56:33;;;;;;;;;;;;;;;13.25;71.21;100934.63;5043705;28;19931;-56
2022/10/02 07:59:03;;;;;;;;;;;;;;;13.27;71.49;100951.22;5040902;28;22314;-52
2022/10/02 08:01:32;;;;;;;;;;;;;;;13.30;71.44;100950.19;5043861;28;19916;-57
2022/10/02 08:03:59;;;;;;;;;;;;;;;13.33;71.38;100952.59;5051017;28;19920;-53
2022/10/02 08:06:25;;;;;;;;;;;;;;;13.35;71.27;100954.22;5052692;28;19925;-56
2022/10/02 08:08:54;;;;;;;;;;;;;;;13.37;71.16;100962.03;5053832;28;19932;-52
2022/10/02 08:11:24;;;;;;;;;;;;;;;13.39;71.15;100968.06;5043578;28;19927;-55
2022/10/02 08:13:49;;;;;;;;;;;;;;;13.41;71.10;100969.69;5054127;28;20027;-54
2022/10/02 08:16:16;;;;;;;;;;;;;;;13.43;71.11;100971.38;5055464;28;19928;-53
2022/10/02 08:18:53;;;;;;;;;;;;;;;13.48;71.09;100969.28;5053915;28;19924;-54
2022/10/02 08:21:20;;;;;;;;;;;;;;;13.53;71.05;100964.56;5047584;28;19921;-55
2022/10/02 08:23:52;;;;;;;;;;;;;;;13.59;70.95;100958.84;5054879;28;20011;-54
2022/10/02 08:26:20;;;;;;;;;;;;;;;13.61;70.71;100959.59;5055497;28;19916;-53
2022/10/02 08:29:04;;;;;;;;;;;;;;;13.66;70.77;100964.56;5064408;28;19924;-54
2022/10/02 08:31:30;;;;;;;;;;;;;;;13.67;70.45;100968.91;5051663;28;19917;-53
2022/10/02 08:33:56;;;;;;;;;;;;;;;13.67;70.16;100980.34;5054215;28;19940;-54
2022/10/02 08:36:34;;;;;;;;;;;;;;;13.67;70.22;100972.41;5061409;28;19924;-54
2022/10/02 08:39:18;;;;;;;;;;;;;;;13.71;70.30;100962.47;5060154;28;19920;-53
2022/10/02 08:41:52;;;;;;;;;;;;;;;13.72;70.16;100967.63;5061865;28;19931;-54
2022/10/02 08:44:36;;;;;;;;;;;;;;;13.77;70.05;100963.84;5067010;28;19943;-55
2022/10/02 08:47:39;;;;;;;;;;;;;;;13.82;69.96;100967.03;5063477;28;19935;-52
2022/10/02 08:50:04;;;;;;;;;;;;;;;13.88;69.59;100950.72;4994996;28;19922;-55
2022/10/02 08:52:30;;;;;;;;;;;;;;;13.92;69.69;100956.66;5047092;28;19920;-58
2022/10/02 08:54:58;;;;;;;;;;;;;;;13.93;69.68;100951.28;5064228;28;19928;-52
2022/10/02 08:57:42;;;;;;;;;;;;;;;13.94;69.48;100952.97;5064087;28;19920;-53
2022/10/02 09:00:10;;;;;;;;;;;;;;;13.98;69.42;100964.19;5045788;28;19958;-52
2022/10/02 09:02:48;;;;;;;;;;;;;;;14.06;69.29;100961.00;5051666;28;19924;-59
2022/10/02 09:05:23;;;;;;;;;;;;;;;14.13;69.25;100964.94;5051272;28;19920;-52
2022/10/02 09:08:07;;;;;;;;;;;;;;;14.21;68.94;100983.75;5050110;28;19983;-55
2022/10/02 09:10:44;;;;;;;;;;;;;;;14.26;68.86;100968.41;5056038;28;21303;-60
2022/10/02 09:13:22;;;;;;;;;;;;;;;14.34;68.75;100957.28;5050382;28;19940;-54
2022/10/02 09:15:50;;;;;;;;;;;;;;;14.42;68.82;100954.09;5056240;28;19924;-53
2022/10/02 09:18:34;;;;;;;;;;;;;;;14.48;68.56;100957.16;5041082;28;19932;-55
2022/10/02 09:21:25;;;;;;;;;;;;;;;14.57;68.36;100958.31;5045150;28;20373;-56
2022/10/02 09:24:09;;;;;;;;;;;;;;;14.64;68.25;100951.59;5042640;28;19920;-53
2022/10/02 09:26:50;;;;;;;;;;;;;;;14.73;68.27;100960.72;5049704;28;19966;-54
2022/10/02 09:29:49;;;;;;;;;;;;;;;14.81;68.18;100962.81;5047785;28;19924;-54
2022/10/02 09:32:33;;;;;;;;;;;;;;;14.86;67.68;100966.00;5064088;28;19920;-54
2022/10/02 09:35:17;;;;;;;;;;;;;;;14.85;67.50;100953.69;5063031;28;19976;-53
2022/10/02 09:37:52;;;;;;;;;;;;;;;14.88;67.40;100961.44;5057629;28;19924;-52
2022/10/02 09:40:31;;;;;;;;;;;;;;;14.89;67.42;100970.22;5063709;28;19940;-53
2022/10/02 09:42:57;;;;;;;;;;;;;;;14.89;67.31;100963.13;5052632;28;19920;-53
2022/10/02 09:45:22;;;;;;;;;;;;;;;14.90;67.27;100956.84;5060314;28;19920;-54
2022/10/02 09:48:05;;;;;;;;;;;;;;;14.89;67.30;100949.88;5058138;28;19925;-54
2022/10/02 09:50:53;;;;;;;;;;;;;;;14.91;67.27;100961.19;5052775;28;19920;-53
2022/10/02 09:53:47;;;;;;;;;;;;;;;14.92;67.23;100952.28;5062901;28;19916;-53
2022/10/02 09:56:23;;;;;;;;;;;;;;;14.97;67.15;100953.75;5044205;28;19935;-53
2022/10/02 09:58:48;;;;;;;;;;;;;;;14.98;67.18;100955.44;5059788;28;19920;-54
2022/10/02 10:01:19;;;;;;;;;;;;;;;14.97;67.18;100933.44;5057922;28;19924;-53
2022/10/02 10:04:00;;;;;;;;;;;;;;;14.93;67.34;100930.13;5066179;28;19927;-53
2022/10/02 10:06:43;;;;;;;;;;;;;;;14.89;67.38;100936.63;5067054;28;19927;-52
2022/10/02 10:09:38;;;;;;;;;;;;;;;14.86;67.29;100936.84;5055145;28;19924;-56
2022/10/02 10:12:04;;;;;;;;;;;;;;;14.86;67.49;100963.34;5062109;28;19928;-54
2022/10/02 10:14:48;;;;;;;;;;;;;;;14.85;67.49;100966.09;5058965;28;19936;-55
2022/10/02 10:17:25;;;;;;;;;;;;;;;14.84;67.63;100962.59;5053260;28;19916;-54
2022/10/02 10:19:54;;;;;;;;;;;;;;;14.82;67.59;100955.72;5062742;28;19920;-55
2022/10/02 10:22:38;;;;;;;;;;;;;;;14.80;67.63;100958.47;5067658;28;20380;-55
2022/10/02 10:25:17;;;;;;;;;;;;;;;14.76;67.67;100978.19;5053808;28;19952;-54
2022/10/02 10:28:04;;;;;;;;;;;;;;;14.70;67.58;100957.47;5043110;28;19931;-55
2022/10/02 10:30:29;;;;;;;;;;;;;;;14.64;67.69;100954.25;5058688;28;19921;-53
2022/10/02 10:33:07;;;;;;;;;;;;;;;14.62;67.82;100956.16;5053712;28;19962;-53
2022/10/02 10:35:46;;;;;;;;;;;;;;;14.62;68.08;100942.91;5035727;28;21142;-52
2022/10/02 10:38:33;;;;;;;;;;;;;;;14.64;67.91;100948.94;5053701;28;19926;-53
2022/10/02 10:41:01;;;;;;;;;;;;;;;14.69;67.80;100939.88;5045216;28;19946;-54
2022/10/02 10:43:40;;;;;;;;;;;;;;;14.71;67.70;100944.09;5053993;28;19924;-55
2022/10/02 10:46:09;;;;;;;;;;;;;;;14.77;67.71;100941.00;5052468;28;19977;-54
2022/10/02 10:48:42;;;;;;;;;;;;;;;14.83;67.56;100945.00;5060053;28;19920;-55
2022/10/02 10:51:13;;;;;;;;;;;;;;;14.86;67.60;100936.84;5059173;28;19926;-53
2022/10/02 10:53:44;;;;;;;;;;;;;;;14.90;67.28;100926.88;5061317;28;20061;-54
2022/10/02 10:56:32;;;;;;;;;;;;;;;14.94;67.10;100928.34;5039106;28;20021;-53
2022/10/02 10:59:01;;;;;;;;;;;;;;;14.98;67.04;100918.34;5042212;28;19924;-53
2022/10/02 11:01:39;;;;;;;;;;;;;;;15.00;66.79;100911.16;5060341;28;19924;-53
2022/10/02 11:04:31;;;;;;;;;;;;;;;15.01;66.64;100892.47;5052194;28;21137;-56
2022/10/02 11:07:22;;;;;;;;;;;;;;;15.01;66.60;100905.72;5032796;28;20038;-53
2022/10/02 11:10:06;;;;;;;;;;;;;;;15.00;66.42;100905.84;5042871;28;19923;-55
2022/10/02 11:12:32;;;;;;;;;;;;;;;15.01;66.57;100910.19;5061838;28;20007;-54
2022/10/02 11:15:00;;;;;;;;;;;;;;;15.07;66.29;100907.06;5067326;28;19928;-52
2022/10/02 11:17:46;;;;;;;;;;;;;;;15.10;66.25;100906.84;5058729;28;19921;-55
2022/10/02 11:20:14;;;;;;;;;;;;;;;15.15;65.96;100915.31;5058998;28;19971;-52
2022/10/02 11:22:55;;;;;;;;;;;;;;;15.12;65.96;100910.22;5057626;28;19924;-56
2022/10/02 11:25:24;;;;;;;;;;;;;;;15.13;65.70;100914.56;5064088;28;19927;-53
2022/10/02 11:28:08;;;;;;;;;;;;;;;15.17;65.65;100918.69;5068395;28;20002;-54
2022/10/02 11:30:52;;;;;;;;;;;;;;;15.23;65.44;100922.69;5056785;28;19925;-55
2022/10/02 11:33:37;;;;;;;;;;;;;;;15.27;65.26;100924.16;5059003;28;19920;-53
2022/10/02 11:36:20;;;;;;;;;;;;;;;15.30;65.08;100926.56;5066400;28;20347;-53
2022/10/02 11:39:06;;;;;;;;;;;;;;;15.31;64.96;100924.75;5067688;28;19947;-55
2022/10/02 11:41:42;;;;;;;;;;;;;;;15.36;64.94;100923.47;5064715;28;19917;-55
2022/10/02 11:44:26;;;;;;;;;;;;;;;15.38;64.77;100931.28;5059550;28;19920;-59
2022/10/02 11:47:11;;;;;;;;;;;;;;;15.40;64.56;100921.41;5049429;28;19924;-55
2022/10/02 11:49:42;;;;;;;;;;;;;;;15.44;64.49;100936.13;5058635;28;19931;-52
2022/10/02 11:52:10;;;;;;;;;;;;;;;15.47;64.03;100930.59;5052864;28;19956;-53
2022/10/02 11:54:43;;;;;;;;;;;;;;;15.52;63.02;100912.53;5052065;28;19924;-55
2022/10/02 11:57:28;;;;;;;;;;;;;;;15.57;62.56;100921.94;5066148;28;20043;-52
2022/10/02 12:00:23;;;;;;;;;;;;;;;15.62;61.99;100933.06;5058370;28;19921;-56
2022/10/02 12:02:58;;;;;;;;;;;;;;;15.63;62.01;100917.00;5036174;28;20011;-54
2022/10/02 12:05:30;;;;;;;;;;;;;;;15.66;61.65;100924.75;5047663;28;19920;-53
2022/10/02 12:07:57;;;;;;;;;;;;;;;15.69;61.63;100919.22;5043145;28;19925;-54
2022/10/02 12:10:27;;;;;;;;;;;;;;;15.75;61.17;100923.19;5040483;28;19931;-59
2022/10/02 12:12:56;;;;;;;;;;;;;;;15.77;60.82;100921.28;5040923;28;19927;-57
2022/10/02 12:15:40;;;;;;;;;;;;;;;15.75;60.74;100925.84;5048620;28;20616;-57
2022/10/02 12:18:13;;;;;;;;;;;;;;;15.77;60.86;100923.06;5044777;28;19947;-55
2022/10/02 12:29:39;;;;;;;;;;;;;;;15.96;59.18;100914.56;5055626;28;19950;-54
2022/10/02 12:32:14;;;;;;;;;;;;;;;15.98;59.02;100936.50;5059308;28;19927;-52
2022/10/02 12:34:47;;;;;;;;;;;;;;;15.97;59.15;100919.75;5065609;28;19924;-54
2022/10/02 12:37:31;;;;;;;;;;;;;;;15.98;59.31;100933.84;5060619;28;20030;-54
2022/10/02 12:40:02;;;;;;;;;;;;;;;16.01;59.39;100917.69;5058265;28;20671;-55
2022/10/02 12:42:30;;;;;;;;;;;;;;;16.06;59.55;100926.16;5048671;28;20397;-55
2022/10/02 12:44:57;;;;;;;;;;;;;;;16.13;59.74;100945.09;5071020;28;19924;-54
2022/10/02 12:47:34;;;;;;;;;;;;;;;16.20;59.59;100918.91;5072338;28;20312;-54
2022/10/02 12:50:03;;;;;;;;;;;;;;;16.28;59.23;100929.75;5070033;28;20361;-54
2022/10/02 12:52:34;;;;;;;;;;;;;;;16.32;58.94;100925.91;5067996;28;20013;-53
2022/10/02 12:55:05;;;;;;;;;;;;;;;16.36;58.54;100926.50;5071207;28;20388;-53
2022/10/02 12:57:52;;;;;;;;;;;;;;;16.38;58.30;100936.06;5073974;28;19931;-56
2022/10/02 13:00:17;;;;;;;;;;;;;;;16.42;58.09;100936.66;5070239;28;20006;-55
2022/10/02 13:02:42;;;;;;;;;;;;;;;16.46;58.27;100938.94;5067085;28;20019;-54
2022/10/02 13:05:20;;;;;;;;;;;;;;;16.51;57.77;100924.44;5074807;28;19919;-52
2022/10/02 13:08:01;;;;;;;;;;;;;;;16.53;57.82;100935.78;5058967;28;19916;-52
2022/10/02 13:10:44;;;;;;;;;;;;;;;16.53;57.74;100946.41;5054667;28;19974;-54
2022/10/02 13:13:11;;;;;;;;;;;;;;;16.49;57.54;100929.88;5066669;28;19955;-52
2022/10/02 13:15:36;;;;;;;;;;;;;;;16.48;58.01;100937.97;5058359;28;20294;-61
2022/10/02 13:18:21;;;;;;;;;;;;;;;16.44;58.01;100935.53;5048809;28;20045;-55
2022/10/02 13:21:05;;;;;;;;;;;;;;;16.43;58.00;100944.47;5063116;28;20043;-54
2022/10/02 13:23:36;;;;;;;;;;;;;;;16.38;58.11;100938.72;5058833;28;19916;-55
2022/10/02 13:26:04;;;;;;;;;;;;;;;16.35;58.38;100935.44;5057747;28;19925;-53
2022/10/02 13:28:29;;;;;;;;;;;;;;;16.32;58.53;100939.19;5056931;28;20090;-54
2022/10/02 13:30:55;;;;;;;;;;;;;;;16.29;58.37;100963.31;5061079;28;20489;-54
2022/10/02 13:33:28;;;;;;;;;;;;;;;16.25;57.97;100932.69;5058297;28;19971;-54
2022/10/02 13:36:18;;;;;;;;;;;;;;;16.22;58.03;100931.09;5059560;28;20435;-56
2022/10/02 13:39:03;;;;;;;;;;;;;;;16.21;57.98;100926.75;5062433;28;20289;-56
2022/10/02 13:41:58;;;;;;;;;;;;;;;16.22;57.81;100919.66;5065415;28;19943;-52
2022/10/02 13:44:29;;;;;;;;;;;;;;;16.23;57.91;100927.47;4979895;28;19969;-56
2022/10/02 13:47:07;;;;;;;;;;;;;;;16.27;58.04;100922.75;5063776;28;19930;-56
2022/10/02 13:49:52;;;;;;;;;;;;;;;16.32;57.70;100925.91;5060763;28;19928;-56
2022/10/02 13:52:21;;;;;;;;;;;;;;;16.36;57.72;100927.34;5047137;28;19917;-55
2022/10/02 13:54:58;;;;;;;;;;;;;;;16.40;57.59;100927.94;5057967;28;20000;-54
2022/10/02 13:57:35;;;;;;;;;;;;;;;16.45;57.48;100934.59;5044035;28;19921;-54
2022/10/02 14:00:06;;;;;;;;;;;;;;;16.46;56.98;100917.69;5034533;28;20416;-55
2022/10/02 14:03:02;;;;;;;;;;;;;;;16.52;56.85;100916.34;5055184;28;20449;-56
2022/10/02 14:05:40;;;;;;;;;;;;;;;16.57;56.82;100919.47;5058431;28;19967;-54
2022/10/02 14:08:18;;;;;;;;;;;;;;;16.64;57.00;100925.16;5042244;28;20460;-55
2022/10/02 14:10:55;;;;;;;;;;;;;;;16.69;56.67;100927.41;5055536;28;20372;-62
2022/10/02 14:13:30;;;;;;;;;;;;;;;16.77;56.66;100919.69;5032713;28;20016;-60
2022/10/02 14:16:15;;;;;;;;;;;;;;;16.85;56.69;100932.34;5066136;28;20288;-54